Time;durP1;ratioP1;P1;durP2;ratioP2;P2;SDS_P1;SDS_P2;PMS_P1;PMS_P2;Temp;Humidity;BMP_temperature;BMP_pressure;BME280_temperature;BME280_humidity;BME280_pressure;Samples;Min_cycle;Max_cycle;Signal;HPM_P1;HPM_P2
2022/07/25 05:01:23;;;;;;;12.67;9.63;;;21.70;93.30;;;;;;5895694;23;20023;-71
2022/07/25 05:03:49;;;;;;;12.45;10.10;;;21.70;93.10;;;;;;4938717;29;20040;-69
2022/07/25 05:06:15;;;;;;;15.10;10.88;;;21.80;93.10;;;;;;4944861;29;20453;-71
2022/07/25 05:08:41;;;;;;;11.65;10.10;;;21.90;93.10;;;;;;4960954;29;20039;-68
2022/07/25 05:11:07;;;;;;;15.80;9.40;;;21.90;93.00;;;;;;4961798;29;20356;-69
2022/07/25 05:13:33;;;;;;;15.50;10.77;;;22.00;93.00;;;;;;4948246;29;20031;-69
2022/07/25 05:15:58;;;;;;;16.33;10.43;;;22.10;92.70;;;;;;4964482;29;20035;-70
2022/07/25 05:18:24;;;;;;;17.30;12.15;;;22.20;92.60;;;;;;4960059;29;20047;-70
2022/07/25 05:20:50;;;;;;;19.20;12.60;;;22.30;92.40;;;;;;4943589;29;20028;-70
2022/07/25 05:23:16;;;;;;;18.15;12.15;;;22.30;92.30;;;;;;4946035;29;20049;-69
2022/07/25 05:25:41;;;;;;;17.70;11.95;;;22.40;92.20;;;;;;4945314;29;20043;-71
2022/07/25 05:28:07;;;;;;;13.98;10.43;;;22.50;92.00;;;;;;4945755;29;20043;-70
2022/07/25 05:30:33;;;;;;;13.20;9.75;;;22.60;91.70;;;;;;4945342;29;20104;-70
2022/07/25 05:32:59;;;;;;;11.90;9.77;;;22.70;91.50;;;;;;4945208;29;20183;-71
2022/07/25 05:35:25;;;;;;;13.55;9.85;;;22.80;91.30;;;;;;4950845;29;20030;-69
2022/07/25 05:37:51;;;;;;;12.95;9.18;;;22.80;91.20;;;;;;4964237;29;20039;-69
2022/07/25 05:40:18;;;;;;;9.70;8.68;;;22.90;91.00;;;;;;4964800;28;20082;-70
2022/07/25 05:42:44;;;;;;;12.90;8.82;;;23.00;90.90;;;;;;4964266;29;20182;-71
2022/07/25 05:45:10;;;;;;;10.75;9.35;;;23.20;90.60;;;;;;4937305;29;20102;-70
2022/07/25 05:47:36;;;;;;;12.88;9.93;;;23.30;90.40;;;;;;4927095;29;20050;-69
2022/07/25 05:50:02;;;;;;;10.80;8.90;;;23.40;90.20;;;;;;4943697;29;20341;-72
2022/07/25 05:52:28;;;;;;;11.10;9.45;;;23.50;90.00;;;;;;4944423;29;20043;-68
2022/07/25 05:54:54;;;;;;;10.60;8.85;;;23.70;89.60;;;;;;4943707;29;20047;-70
2022/07/25 05:57:20;;;;;;;12.38;9.95;;;23.80;89.20;;;;;;4943781;29;20149;-68
2022/07/25 05:59:45;;;;;;;12.88;9.80;;;23.80;88.90;;;;;;4943530;29;20055;-69
2022/07/25 06:02:11;;;;;;;12.88;9.88;;;23.90;88.80;;;;;;4955437;29;20051;-68
2022/07/25 06:04:37;;;;;;;12.50;9.68;;;24.00;88.70;;;;;;4963357;29;20059;-72
2022/07/25 06:07:03;;;;;;;14.00;9.77;;;24.00;88.80;;;;;;4962615;29;20369;-76
2022/07/25 06:09:30;;;;;;;11.07;9.02;;;24.10;89.00;;;;;;4941321;29;20320;-69
2022/07/25 06:11:56;;;;;;;11.13;9.37;;;24.20;88.60;;;;;;4943311;29;20059;-69
2022/07/25 06:14:22;;;;;;;13.45;9.57;;;24.30;88.40;;;;;;4943727;29;20026;-70
2022/07/25 06:16:47;;;;;;;14.40;9.02;;;24.30;88.10;;;;;;4956932;29;20162;-70
2022/07/25 06:19:13;;;;;;;12.75;9.90;;;24.40;88.10;;;;;;4962974;29;20071;-71
2022/07/25 06:21:39;;;;;;;10.52;9.18;;;24.50;87.70;;;;;;4963102;29;20306;-70
2022/07/25 06:24:05;;;;;;;11.13;9.18;;;24.60;87.30;;;;;;4962640;29;20059;-71
2022/07/25 06:26:31;;;;;;;13.32;9.68;;;24.70;86.50;;;;;;4963178;29;20046;-71
2022/07/25 06:28:57;;;;;;;11.43;9.05;;;24.80;86.40;;;;;;4962497;29;20035;-70
2022/07/25 06:31:23;;;;;;;12.98;8.77;;;24.90;85.90;;;;;;4962163;28;20085;-70
2022/07/25 06:33:48;;;;;;;11.63;9.45;;;25.00;85.90;;;;;;4962322;29;20063;-72
2022/07/25 06:36:14;;;;;;;11.77;9.27;;;25.10;85.60;;;;;;4962528;29;20301;-71
2022/07/25 06:38:40;;;;;;;13.27;9.60;;;25.20;85.00;;;;;;4962962;29;20040;-71
2022/07/25 06:41:05;;;;;;;15.40;10.13;;;25.30;84.70;;;;;;4962455;29;20047;-70
2022/07/25 06:43:31;;;;;;;12.85;9.55;;;25.40;84.60;;;;;;4959588;29;20020;-69
2022/07/25 06:45:57;;;;;;;13.05;9.38;;;25.60;84.20;;;;;;4942489;29;20136;-70
2022/07/25 06:48:23;;;;;;;11.95;9.13;;;25.80;84.20;;;;;;4943750;29;20032;-73
2022/07/25 06:50:50;;;;;;;13.73;9.32;;;25.90;82.90;;;;;;4943307;29;20091;-69
2022/07/25 06:53:16;;;;;;;11.05;9.20;;;26.00;82.30;;;;;;4946008;29;20361;-72
2022/07/25 06:55:41;;;;;;;11.38;8.55;;;26.20;82.00;;;;;;4947438;29;20219;-70
2022/07/25 06:58:07;;;;;;;12.23;8.48;;;26.30;81.70;;;;;;4937441;29;20044;-71
2022/07/25 07:00:33;;;;;;;13.23;8.73;;;26.40;80.90;;;;;;4927503;29;20040;-71
2022/07/25 07:03:01;;;;;;;11.10;8.68;;;26.60;80.50;;;;;;4932877;29;20096;-70
2022/07/25 07:05:30;;;;;;;12.80;9.25;;;26.70;80.00;;;;;;4943911;29;20344;-69
2022/07/25 07:07:57;;;;;;;14.35;10.02;;;26.80;80.00;;;;;;4927487;29;20328;-71
2022/07/25 07:10:23;;;;;;;14.95;9.90;;;26.90;78.90;;;;;;4936117;29;20316;-69
2022/07/25 07:12:49;;;;;;;11.90;9.48;;;27.00;79.90;;;;;;4961526;29;20031;-71
2022/07/25 07:15:35;;;;;;;13.60;9.10;;;27.10;78.60;;;;;;4946377;29;20054;-73
2022/07/25 07:18:01;;;;;;;11.70;8.40;;;27.10;78.80;;;;;;4946051;29;20039;-73
2022/07/25 07:20:27;;;;;;;13.43;9.15;;;27.30;78.40;;;;;;4966253;29;20138;-72
2022/07/25 07:22:53;;;;;;;12.65;9.00;;;27.30;78.20;;;;;;4965598;29;20045;-76
2022/07/25 07:25:20;;;;;;;12.90;9.02;;;27.40;77.80;;;;;;4964908;29;20039;-70
2022/07/25 07:27:46;;;;;;;11.50;9.23;;;27.40;77.30;;;;;;4966438;29;20023;-72
2022/07/25 07:30:16;;;;;;;15.80;10.07;;;27.40;77.50;;;;;;4965605;28;20031;-73
2022/07/25 07:32:43;;;;;;;15.65;9.80;;;27.50;77.80;;;;;;4966175;29;20035;-70
2022/07/25 07:35:10;;;;;;;16.88;9.77;;;27.70;77.00;;;;;;4963764;29;20329;-74
2022/07/25 07:37:35;;;;;;;13.75;9.52;;;27.80;76.50;;;;;;4946578;29;20046;-71
2022/07/25 07:40:02;;;;;;;11.95;9.13;;;28.00;76.50;;;;;;4946400;29;20020;-75
2022/07/25 07:42:45;;;;;;;16.02;9.30;;;28.10;75.80;;;;;;4946571;29;20031;-71
2022/07/25 07:45:14;;;;;;;11.77;8.55;;;28.10;75.60;;;;;;4945169;29;20305;-74
2022/07/25 07:47:40;;;;;;;11.30;8.77;;;28.20;75.90;;;;;;4946304;29;20050;-72
2022/07/25 07:50:07;;;;;;;11.65;8.75;;;28.40;75.30;;;;;;4946254;29;20042;-72
2022/07/25 07:52:33;;;;;;;13.32;8.80;;;28.60;74.80;;;;;;4957196;29;20035;-74
2022/07/25 07:57:43;;;;;;;12.27;8.77;;;28.80;74.20;;;;;;4952981;29;20047;-71
2022/07/25 08:00:10;;;;;;;8.90;7.97;;;28.90;74.30;;;;;;4926147;29;20094;-73
2022/07/25 08:02:49;;;;;;;10.50;7.63;;;29.10;72.60;;;;;;4918220;29;20060;-72
2022/07/25 08:05:32;;;;;;;8.93;7.47;;;29.30;71.30;;;;;;4926132;29;20150;-74
2022/07/25 08:07:59;;;;;;;9.73;8.25;;;29.50;70.90;;;;;;4926812;29;20028;-78
2022/07/25 08:10:28;;;;;;;9.23;7.50;;;29.60;70.60;;;;;;4937785;29;20040;-77
2022/07/25 08:12:55;;;;;;;10.13;7.18;;;29.80;69.60;;;;;;4945892;29;20035;-75
2022/07/25 08:15:22;;;;;;;10.60;8.73;;;29.90;69.60;;;;;;4945336;29;20056;-76
2022/07/25 08:17:49;;;;;;;9.77;7.65;;;30.10;69.60;;;;;;4945964;29;20047;-73
2022/07/25 08:20:17;;;;;;;9.20;8.02;;;30.20;69.60;;;;;;4946012;29;20027;-74
2022/07/25 08:22:45;;;;;;;10.50;7.30;;;30.40;67.10;;;;;;4946146;29;20032;-74
2022/07/25 08:25:17;;;;;;;8.68;7.38;;;30.50;67.30;;;;;;4945519;29;20134;-74
2022/07/25 08:27:43;;;;;;;7.90;7.10;;;30.60;67.40;;;;;;4945969;29;20360;-73
2022/07/25 08:30:10;;;;;;;8.60;7.13;;;30.70;67.40;;;;;;4945596;29;20032;-73
2022/07/25 08:32:49;;;;;;;8.63;7.53;;;30.80;66.50;;;;;;4932574;29;20098;-73
2022/07/25 08:35:16;;;;;;;8.80;7.50;;;31.00;65.50;;;;;;4944367;29;20036;-73
2022/07/25 08:37:43;;;;;;;9.50;7.53;;;31.00;64.90;;;;;;4945225;29;20039;-73
2022/07/25 08:40:10;;;;;;;7.88;6.78;;;31.10;65.40;;;;;;4945116;29;20034;-74
2022/07/25 08:42:36;;;;;;;9.50;7.53;;;31.10;65.80;;;;;;4945497;29;20039;-74
2022/07/25 08:45:05;;;;;;;9.82;6.88;;;31.30;65.40;;;;;;4943948;29;20050;-74
2022/07/25 08:47:32;;;;;;;7.85;6.93;;;31.30;64.40;;;;;;4945213;29;20269;-71
2022/07/25 08:49:57;;;;;;;8.40;6.70;;;31.40;63.80;;;;;;4944862;29;20039;-73
2022/07/25 08:52:23;;;;;;;11.00;7.18;;;31.50;63.50;;;;;;4953645;29;20090;-72
2022/07/25 08:54:50;;;;;;;12.32;7.18;;;31.50;63.50;;;;;;4945252;29;20120;-77
2022/07/25 08:57:16;;;;;;;9.63;7.00;;;31.60;63.70;;;;;;4942504;29;20051;-74
2022/07/25 08:59:43;;;;;;;10.82;7.47;;;31.80;63.70;;;;;;4925913;29;20032;-73
2022/07/25 09:02:13;;;;;;;8.02;7.22;;;31.90;63.70;;;;;;4924778;29;20393;-73
2022/07/25 09:04:38;;;;;;;11.80;7.25;;;31.90;62.60;;;;;;4926436;29;20035;-71
2022/07/25 09:07:05;;;;;;;8.55;6.75;;;32.00;63.00;;;;;;4925597;29;20039;-72
2022/07/25 09:09:33;;;;;;;8.40;7.35;;;32.10;62.70;;;;;;4929094;29;20020;-72
2022/07/25 09:11:59;;;;;;;8.45;7.60;;;32.20;61.10;;;;;;4945547;29;20039;-70
2022/07/25 09:14:25;;;;;;;13.73;8.10;;;32.40;61.80;;;;;;4945594;29;20434;-73
2022/07/25 09:16:52;;;;;;;8.82;7.90;;;32.40;62.70;;;;;;4945184;29;20066;-72
2022/07/25 09:19:23;;;;;;;16.00;8.32;;;32.40;62.70;;;;;;4946752;29;20027;-73
2022/07/25 09:22:18;;;;;;;9.30;7.72;;;32.40;61.30;;;;;;4945792;29;20046;-72
2022/07/25 09:24:44;;;;;;;7.38;6.63;;;32.40;60.20;;;;;;4924882;29;20044;-74
2022/07/25 09:27:11;;;;;;;8.73;7.13;;;32.40;59.60;;;;;;4944420;29;20217;-72
2022/07/25 09:29:39;;;;;;;7.90;6.07;;;32.50;59.60;;;;;;4944840;29;20035;-73
2022/07/25 09:32:20;;;;;;;7.00;6.00;;;32.60;58.30;;;;;;4943545;29;20059;-72
2022/07/25 09:34:48;;;;;;;8.02;6.82;;;32.70;58.00;;;;;;4944203;29;20043;-73
2022/07/25 09:37:17;;;;;;;8.90;6.13;;;32.80;58.10;;;;;;4941038;29;20038;-71
2022/07/25 09:39:48;;;;;;;6.72;6.03;;;33.00;57.70;;;;;;4944393;29;20092;-72
2022/07/25 09:42:15;;;;;;;7.68;6.60;;;33.20;57.30;;;;;;4944224;29;20033;-73
2022/07/25 09:44:41;;;;;;;7.75;5.90;;;33.30;56.90;;;;;;4944285;29;20385;-73
2022/07/25 09:47:15;;;;;;;6.63;5.90;;;33.20;57.00;;;;;;4943131;29;20044;-72
2022/07/25 09:49:45;;;;;;;9.23;6.32;;;33.30;56.60;;;;;;4944403;29;20032;-73
2022/07/25 09:52:12;;;;;;;8.60;6.78;;;33.20;56.70;;;;;;4943618;29;20124;-72
2022/07/25 09:54:39;;;;;;;7.55;6.28;;;33.30;56.60;;;;;;4942967;29;20072;-74
2022/07/25 09:57:05;;;;;;;10.65;6.50;;;33.30;56.60;;;;;;4943611;29;20062;-71
2022/07/25 09:59:34;;;;;;;9.00;6.68;;;33.30;56.70;;;;;;4927243;29;20051;-73
2022/07/25 10:02:29;;;;;;;8.50;6.35;;;33.40;56.80;;;;;;4942806;29;20063;-73
2022/07/25 10:05:10;;;;;;;7.07;6.38;;;33.40;56.50;;;;;;4943517;29;20027;-74
2022/07/25 10:07:52;;;;;;;7.40;6.70;;;33.40;56.70;;;;;;4943845;29;20365;-74
2022/07/25 10:10:37;;;;;;;7.85;7.05;;;33.50;57.30;;;;;;4943866;29;20100;-71
2022/07/25 10:13:10;;;;;;;7.50;6.80;;;33.60;57.10;;;;;;4926550;29;20038;-73
2022/07/25 10:15:41;;;;;;;9.27;6.60;;;33.60;57.20;;;;;;4943317;29;20126;-72
2022/07/25 10:18:07;;;;;;;9.07;6.95;;;33.70;56.60;;;;;;4943257;29;20369;-74
2022/07/25 10:20:33;;;;;;;8.48;6.63;;;33.70;56.70;;;;;;4943988;29;20071;-71
2022/07/25 10:22:59;;;;;;;7.55;6.28;;;33.80;56.90;;;;;;4943587;29;20027;-75
2022/07/25 10:25:26;;;;;;;8.35;6.90;;;33.80;57.00;;;;;;4943847;29;20038;-75
2022/07/25 10:28:02;;;;;;;8.70;6.97;;;33.80;57.90;;;;;;4942778;29;20038;-74
2022/07/25 10:30:39;;;;;;;8.73;7.03;;;33.90;57.20;;;;;;4943150;29;20044;-74
2022/07/25 10:33:17;;;;;;;7.90;7.10;;;34.00;57.10;;;;;;4943520;29;20039;-73
2022/07/25 10:35:44;;;;;;;13.00;7.00;;;34.10;56.80;;;;;;4941932;29;20035;-74
2022/07/25 10:38:10;;;;;;;9.15;7.07;;;34.20;56.60;;;;;;4943221;29;20045;-73
2022/07/25 10:40:43;;;;;;;8.57;6.70;;;34.10;57.00;;;;;;4943544;29;20043;-72
2022/07/25 10:43:19;;;;;;;7.28;6.57;;;34.30;55.80;;;;;;4943476;29;20055;-73
2022/07/25 10:45:57;;;;;;;10.07;6.95;;;34.50;56.10;;;;;;4943289;29;20031;-77
2022/07/25 10:48:32;;;;;;;7.07;6.32;;;34.60;55.40;;;;;;4943441;29;20039;-75
2022/07/25 10:51:02;;;;;;;8.35;6.65;;;34.70;55.30;;;;;;4943058;29;20384;-75
2022/07/25 10:53:37;;;;;;;9.40;6.80;;;34.80;55.20;;;;;;4943401;29;20079;-74
2022/07/25 10:56:09;;;;;;;7.03;6.28;;;34.90;55.30;;;;;;4942593;29;20036;-74
2022/07/25 10:58:43;;;;;;;8.07;5.97;;;35.10;54.70;;;;;;4942312;29;20124;-74
2022/07/25 11:01:10;;;;;;;7.50;6.70;;;35.20;54.70;;;;;;4940663;29;20047;-74
2022/07/25 11:03:35;;;;;;;7.95;6.03;;;35.30;54.80;;;;;;4924226;29;20044;-73
2022/07/25 11:06:01;;;;;;;7.95;6.10;;;35.60;53.80;;;;;;4924210;29;20254;-71
2022/07/25 11:08:34;;;;;;;8.07;6.30;;;35.80;53.60;;;;;;4924798;29;20335;-72
2022/07/25 11:11:01;;;;;;;8.30;6.22;;;36.00;53.30;;;;;;4938872;29;20051;-73
2022/07/25 11:13:27;;;;;;;7.07;6.38;;;36.20;52.90;;;;;;4943659;29;20023;-72
2022/07/25 11:15:57;;;;;;;8.70;5.95;;;36.50;52.50;;;;;;4942401;29;20112;-76
2022/07/25 11:18:39;;;;;;;7.18;5.90;;;36.70;52.30;;;;;;4943281;29;20043;-73
2022/07/25 11:21:07;;;;;;;6.57;5.90;;;36.90;51.10;;;;;;4942722;29;20143;-73
2022/07/25 11:23:33;;;;;;;;;;;36.90;51.30;;;;;;4938093;29;20090;-73
2022/07/25 11:26:10;;;;;;;6.65;5.70;;;37.10;50.90;;;;;;4937230;29;19906;-73
2022/07/25 11:28:47;;;;;;;8.52;5.57;;;37.40;50.90;;;;;;4925969;29;20040;-72
2022/07/25 11:31:15;;;;;;;6.00;5.40;;;37.40;50.90;;;;;;4918414;29;20047;-73
2022/07/25 11:33:45;;;;;;;6.93;5.80;;;37.60;50.90;;;;;;4923526;29;20339;-73
2022/07/25 11:36:11;;;;;;;7.13;5.45;;;37.80;50.90;;;;;;4918994;29;20044;-72
2022/07/25 11:38:39;;;;;;;7.18;5.40;;;38.10;50.50;;;;;;4906071;29;20072;-73
2022/07/25 11:41:05;;;;;;;6.35;5.68;;;38.80;49.20;;;;;;4919750;29;20028;-72
2022/07/25 11:43:32;;;;;;;6.88;5.15;;;39.80;49.00;;;;;;4927244;29;20326;-72
2022/07/25 11:46:05;;;;;;;7.07;5.18;;;40.20;48.20;;;;;;4941542;29;20110;-73
2022/07/25 11:48:39;;;;;;;5.72;5.07;;;40.10;48.20;;;;;;4965535;29;20321;-73
2022/07/25 11:51:16;;;;;;;6.07;5.22;;;39.70;47.90;;;;;;4965497;29;20269;-74
2022/07/25 11:53:48;;;;;;;7.20;4.93;;;40.20;47.90;;;;;;4946557;29;20039;-73
2022/07/25 11:56:16;;;;;;;6.57;5.18;;;41.60;47.00;;;;;;4945676;29;20063;-72
2022/07/25 11:58:48;;;;;;;4.90;4.45;;;43.00;46.40;;;;;;4946247;29;20325;-72
2022/07/25 12:01:14;;;;;;;6.43;4.47;;;43.80;45.10;;;;;;4945333;29;20032;-72
2022/07/25 12:03:41;;;;;;;5.10;4.57;;;44.60;44.20;;;;;;4946073;29;20059;-72
2022/07/25 12:06:11;;;;;;;4.78;4.32;;;45.30;44.00;;;;;;4945297;29;20063;-73
2022/07/25 12:08:39;;;;;;;5.93;4.45;;;45.30;43.20;;;;;;4948961;29;20035;-77
2022/07/25 12:11:20;;;;;;;5.45;3.95;;;45.80;43.10;;;;;;4964391;29;20062;-73
2022/07/25 12:13:47;;;;;;;6.63;4.10;;;45.40;43.20;;;;;;4965151;29;20043;-74
2022/07/25 12:16:13;;;;;;;4.70;4.18;;;44.80;43.10;;;;;;4954714;28;20348;-73
2022/07/25 12:18:42;;;;;;;4.63;4.20;;;44.20;43.70;;;;;;4946327;29;20020;-75
2022/07/25 12:21:08;;;;;;;4.50;4.10;;;43.70;43.10;;;;;;4928322;29;20031;-76
2022/07/25 12:23:34;;;;;;;5.30;4.07;;;43.50;43.30;;;;;;4946218;29;20034;-73
2022/07/25 12:26:00;;;;;;;4.40;4.00;;;43.60;43.40;;;;;;4945457;29;20035;-73
2022/07/25 12:28:27;;;;;;;8.05;4.40;;;44.00;43.30;;;;;;4945659;29;20321;-73
2022/07/25 12:30:53;;;;;;;7.53;4.75;;;44.10;43.40;;;;;;4944933;29;20083;-73
2022/07/25 12:33:18;;;;;;;6.32;4.05;;;43.60;43.70;;;;;;4928762;29;20281;-74
2022/07/25 12:35:44;;;;;;;5.07;4.00;;;43.20;44.00;;;;;;4943088;29;20040;-74
2022/07/25 12:38:10;;;;;;;5.00;3.90;;;43.20;44.50;;;;;;4945420;29;20571;-74
2022/07/25 12:40:36;;;;;;;4.50;4.10;;;44.00;44.00;;;;;;4945784;29;20309;-73
2022/07/25 12:43:03;;;;;;;5.60;3.83;;;45.60;43.00;;;;;;4939243;29;20061;-71
2022/07/25 12:45:29;;;;;;;;;;;46.50;42.40;;;;;;4944752;29;20194;-74
2022/07/25 12:47:55;;;;;;;4.50;4.10;;;46.30;41.70;;;;;;4962860;29;19914;-75
2022/07/25 12:50:21;;;;;;;4.78;3.60;;;45.30;42.40;;;;;;4963932;28;20058;-74
2022/07/25 12:52:47;;;;;;;5.88;4.43;;;43.70;42.80;;;;;;4964705;29;20023;-74
2022/07/25 12:55:15;;;;;;;7.38;4.43;;;42.40;44.10;;;;;;4964117;29;20062;-74
2022/07/25 12:57:42;;;;;;;6.65;4.22;;;41.30;45.30;;;;;;4964296;29;20065;-74
2022/07/25 13:00:11;;;;;;;5.65;4.78;;;40.70;45.90;;;;;;4962623;28;20125;-74
2022/07/25 13:02:37;;;;;;;7.32;4.72;;;40.10;46.80;;;;;;4944703;29;20094;-73
2022/07/25 13:05:04;;;;;;;6.55;4.80;;;39.60;46.90;;;;;;4945201;29;20138;-75
2022/07/25 13:07:31;;;;;;;5.35;4.72;;;39.30;47.50;;;;;;4945044;29;20293;-75
2022/07/25 13:10:02;;;;;;;6.28;4.60;;;39.20;47.60;;;;;;4944276;29;20048;-79
2022/07/25 13:12:28;;;;;;;6.70;4.63;;;39.30;47.80;;;;;;4944867;29;20074;-75
2022/07/25 13:14:54;;;;;;;9.63;4.70;;;40.90;47.00;;;;;;4944352;29;20035;-76
2022/07/25 13:17:19;;;;;;;5.57;4.65;;;43.40;45.20;;;;;;4980730;28;20054;-78
2022/07/25 13:19:51;;;;;;;5.55;4.30;;;44.40;44.10;;;;;;4983019;28;20362;-76
2022/07/25 13:22:20;;;;;;;5.57;4.28;;;44.10;43.90;;;;;;4982547;28;20039;-77
2022/07/25 13:24:46;;;;;;;5.47;4.78;;;42.80;44.40;;;;;;4983258;28;20313;-78
2022/07/25 13:27:12;;;;;;;5.93;4.50;;;42.00;45.10;;;;;;4982954;28;20035;-77
2022/07/25 13:29:38;;;;;;;7.22;4.65;;;41.40;46.10;;;;;;4983068;28;20071;-73
2022/07/25 13:32:04;;;;;;;5.22;4.72;;;40.80;46.20;;;;;;4981703;28;20193;-75
2022/07/25 13:34:30;;;;;;;6.00;4.82;;;40.40;46.80;;;;;;4982583;28;20046;-74
2022/07/25 13:36:55;;;;;;;6.07;4.68;;;40.90;46.20;;;;;;4962955;28;20245;-77
2022/07/25 13:39:21;;;;;;;6.22;4.68;;;40.90;46.10;;;;;;4963615;29;20328;-76
2022/07/25 13:41:48;;;;;;;4.90;4.45;;;40.70;46.10;;;;;;4963604;29;20082;-75
2022/07/25 13:44:14;;;;;;;8.32;5.03;;;40.80;46.00;;;;;;4960933;28;20023;-73
2022/07/25 13:46:40;;;;;;;4.50;3.63;;;41.20;46.10;;;;;;4968999;28;20055;-74
2022/07/25 13:49:07;;;;;;;4.85;4.32;;;42.10;45.20;;;;;;4962929;29;20042;-74
2022/07/25 13:51:32;;;;;;;5.45;4.30;;;42.00;43.50;;;;;;4963101;29;20027;-74
2022/07/25 13:53:58;;;;;;;5.97;4.20;;;41.40;43.80;;;;;;4963159;29;20035;-74
2022/07/25 13:56:24;;;;;;;4.70;4.18;;;40.70;44.10;;;;;;4963273;29;20031;-73
2022/07/25 13:58:50;;;;;;;6.07;4.15;;;40.00;44.70;;;;;;4963144;29;20023;-73
2022/07/25 14:01:16;;;;;;;4.93;4.43;;;39.10;45.60;;;;;;4961281;28;20232;-73
2022/07/25 14:03:41;;;;;;;5.50;4.65;;;38.70;45.60;;;;;;4980847;28;20142;-74
2022/07/25 14:06:10;;;;;;;5.47;4.82;;;37.90;46.20;;;;;;4981578;28;20371;-74
2022/07/25 14:08:38;;;;;;;4.82;4.32;;;37.60;46.70;;;;;;4982432;28;20035;-74
2022/07/25 14:11:05;;;;;;;6.63;5.05;;;37.60;46.60;;;;;;4965778;28;20027;-73
2022/07/25 14:13:31;;;;;;;5.07;4.57;;;37.80;46.60;;;;;;4962685;28;20019;-73
2022/07/25 14:15:58;;;;;;;10.85;4.78;;;38.20;46.60;;;;;;4948819;29;20051;-74
2022/07/25 14:18:23;;;;;;;6.30;4.75;;;38.50;46.00;;;;;;4953355;29;20019;-74
2022/07/25 14:20:49;;;;;;;5.40;4.68;;;38.60;46.30;;;;;;4966873;28;20061;-74
2022/07/25 14:23:16;;;;;;;7.47;5.13;;;38.70;46.30;;;;;;4966903;28;20031;-73
2022/07/25 14:25:42;;;;;;;6.03;5.13;;;38.20;47.30;;;;;;4956008;28;20055;-73
2022/07/25 14:28:08;;;;;;;7.40;5.88;;;38.00;47.80;;;;;;4977402;28;20301;-76
2022/07/25 14:30:34;;;;;;;7.63;5.20;;;37.80;48.40;;;;;;4977862;28;20046;-74
2022/07/25 14:32:59;;;;;;;8.27;5.43;;;37.60;49.10;;;;;;4981647;28;20034;-73
2022/07/25 14:35:25;;;;;;;7.00;5.75;;;37.50;49.30;;;;;;4974688;28;20062;-74
2022/07/25 14:37:51;;;;;;;7.60;5.40;;;38.00;49.00;;;;;;4939407;29;20032;-74
2022/07/25 14:40:17;;;;;;;6.93;5.80;;;38.00;49.00;;;;;;4942429;29;20332;-74
2022/07/25 14:42:43;;;;;;;6.55;4.97;;;39.20;48.00;;;;;;4946379;29;20015;-73
2022/07/25 14:45:10;;;;;;;5.45;4.90;;;40.80;46.90;;;;;;4972420;28;20077;-73
2022/07/25 14:47:37;;;;;;;5.93;4.72;;;42.60;45.50;;;;;;4962374;29;20031;-74
2022/07/25 14:50:03;;;;;;;;;;;43.60;44.30;;;;;;4961686;29;20039;-73
2022/07/25 14:52:29;;;;;;;5.70;5.10;;;44.60;43.80;;;;;;4961238;29;19981;-74
2022/07/25 14:54:55;;;;;;;9.18;5.13;;;45.80;43.10;;;;;;4961699;29;20083;-74
2022/07/25 14:57:21;;;;;;;5.50;4.93;;;47.30;42.50;;;;;;4962660;29;20035;-74
2022/07/25 14:59:50;;;;;;;5.45;4.95;;;46.50;41.70;;;;;;4942982;29;20136;-74
2022/07/25 15:02:16;;;;;;;5.90;5.30;;;44.30;43.00;;;;;;4917764;29;20068;-75
2022/07/25 15:04:41;;;;;;;6.50;4.65;;;43.20;44.10;;;;;;4924392;29;20306;-74
2022/07/25 15:07:07;;;;;;;6.05;5.43;;;41.90;44.90;;;;;;4925242;29;20106;-75
2022/07/25 15:09:33;;;;;;;5.90;5.40;;;40.80;46.00;;;;;;4913140;29;20028;-75
2022/07/25 15:11:59;;;;;;;6.15;5.55;;;40.30;46.60;;;;;;4906393;29;20033;-74
2022/07/25 15:14:25;;;;;;;5.97;5.30;;;41.80;45.70;;;;;;4909330;29;20047;-75
2022/07/25 15:16:54;;;;;;;5.85;4.55;;;41.70;45.60;;;;;;4924055;29;20107;-74
2022/07/25 15:19:19;;;;;;;8.00;5.13;;;41.70;45.60;;;;;;4928464;29;20088;-74
2022/07/25 15:21:45;;;;;;;7.13;5.20;;;40.70;46.10;;;;;;4929169;29;20032;-74
2022/07/25 15:24:12;;;;;;;6.82;5.57;;;39.60;46.80;;;;;;4928867;29;20050;-73
2022/07/25 15:26:38;;;;;;;8.05;5.43;;;38.70;47.90;;;;;;4929406;29;20076;-74
2022/07/25 15:29:08;;;;;;;6.53;5.25;;;39.40;47.80;;;;;;4928241;29;20036;-74
2022/07/25 15:31:35;;;;;;;6.53;5.40;;;40.90;46.20;;;;;;4928213;29;20124;-75
2022/07/25 15:34:04;;;;;;;8.32;5.65;;;40.30;47.30;;;;;;4928834;29;20103;-75
2022/07/25 15:36:30;;;;;;;5.97;5.38;;;39.60;48.80;;;;;;4928889;29;20038;-74
2022/07/25 15:38:55;;;;;;;7.75;5.60;;;40.40;48.70;;;;;;4928890;29;20060;-74
2022/07/25 15:41:21;;;;;;;10.70;5.20;;;41.40;48.00;;;;;;4911616;29;20099;-72
2022/07/25 15:43:47;;;;;;;7.55;5.00;;;41.80;47.70;;;;;;4928938;29;20039;-73
2022/07/25 15:46:13;;;;;;;7.78;4.93;;;42.10;47.50;;;;;;4936653;29;20052;-71
2022/07/25 15:48:39;;;;;;;6.88;5.63;;;42.90;47.00;;;;;;4963485;29;20043;-73
2022/07/25 15:51:05;;;;;;;7.38;5.18;;;43.20;46.80;;;;;;4966166;29;20201;-73
2022/07/25 15:53:31;;;;;;;8.20;5.30;;;41.80;47.40;;;;;;4967017;29;20027;-74
2022/07/25 15:55:57;;;;;;;5.90;5.22;;;39.50;49.50;;;;;;4966929;29;20285;-74
2022/07/25 15:58:23;;;;;;;7.57;5.53;;;37.70;51.60;;;;;;4966451;29;20047;-74
2022/07/25 16:00:48;;;;;;;6.13;5.20;;;36.60;52.80;;;;;;4966022;29;20123;-74
2022/07/25 16:03:14;;;;;;;6.63;5.93;;;36.00;53.70;;;;;;4966156;29;20051;-73
2022/07/25 16:05:42;;;;;;;8.27;6.20;;;35.20;54.70;;;;;;4966556;28;20217;-73
2022/07/25 16:08:08;;;;;;;6.70;5.63;;;35.10;55.10;;;;;;4965500;28;20257;-74
2022/07/25 16:10:34;;;;;;;6.70;5.43;;;35.90;54.40;;;;;;4966723;29;20094;-73
2022/07/25 16:13:01;;;;;;;6.40;5.30;;;36.80;53.20;;;;;;4966694;29;20035;-76
2022/07/25 16:15:27;;;;;;;5.70;5.20;;;37.20;52.60;;;;;;4965834;28;20118;-74
2022/07/25 16:17:54;;;;;;;6.32;5.10;;;37.40;52.20;;;;;;4966513;29;20104;-74
2022/07/25 16:20:21;;;;;;;6.45;5.18;;;36.70;52.60;;;;;;4966047;29;20274;-72
2022/07/25 16:22:48;;;;;;;8.27;5.70;;;36.00;53.70;;;;;;4966638;29;20027;-74
2022/07/25 16:25:14;;;;;;;8.60;5.85;;;35.60;53.50;;;;;;4964857;28;20051;-74
2022/07/25 16:27:40;;;;;;;7.88;5.85;;;35.30;54.40;;;;;;4949294;29;20039;-74
2022/07/25 16:30:06;;;;;;;6.60;5.70;;;35.00;54.60;;;;;;4965356;28;20194;-74
2022/07/25 16:32:32;;;;;;;7.10;5.10;;;35.00;53.80;;;;;;4966148;29;20023;-75
2022/07/25 16:34:58;;;;;;;6.53;5.57;;;34.90;53.80;;;;;;4966405;29;20351;-74
2022/07/25 16:37:23;;;;;;;9.75;5.13;;;34.80;53.50;;;;;;4965815;29;20339;-73
2022/07/25 16:39:49;;;;;;;6.75;5.13;;;34.80;53.20;;;;;;4966037;29;20031;-74
2022/07/25 16:42:15;;;;;;;6.82;5.20;;;34.90;53.50;;;;;;4965681;29;20268;-75
2022/07/25 16:44:41;;;;;;;6.80;5.20;;;34.70;53.40;;;;;;4966253;29;20019;-74
2022/07/25 16:47:07;;;;;;;8.10;5.05;;;34.50;53.20;;;;;;4964804;28;20061;-74
2022/07/25 16:49:33;;;;;;;6.47;5.15;;;34.30;53.40;;;;;;4966005;29;20035;-74
2022/07/25 16:51:59;;;;;;;6.03;5.25;;;34.10;53.50;;;;;;4965748;29;20062;-73
2022/07/25 16:54:25;;;;;;;7.10;5.15;;;34.10;53.80;;;;;;4965202;29;20205;-73
2022/07/25 16:56:51;;;;;;;7.00;5.25;;;34.30;53.50;;;;;;4965564;29;20051;-72
2022/07/25 16:59:17;;;;;;;6.13;4.82;;;34.40;53.30;;;;;;4948436;29;20081;-73
2022/07/25 17:01:45;;;;;;;7.18;4.93;;;34.70;53.20;;;;;;4964768;28;20043;-72
2022/07/25 17:04:11;;;;;;;5.47;4.93;;;35.00;53.00;;;;;;4948060;29;20031;-75
2022/07/25 17:06:37;;;;;;;7.22;5.20;;;35.30;52.60;;;;;;4965604;29;20102;-74
2022/07/25 17:09:03;;;;;;;6.78;5.30;;;35.40;52.50;;;;;;4965298;29;20058;-76
2022/07/25 17:11:29;;;;;;;5.72;4.65;;;35.60;52.60;;;;;;4965303;29;20055;-74
2022/07/25 17:13:55;;;;;;;8.65;5.07;;;35.70;52.20;;;;;;4965343;29;20075;-74
2022/07/25 17:16:23;;;;;;;6.10;4.65;;;35.60;52.40;;;;;;4947713;29;20068;-73
2022/07/25 17:18:49;;;;;;;6.88;5.57;;;35.40;52.80;;;;;;4965275;29;20042;-73
2022/07/25 17:21:17;;;;;;;5.78;4.70;;;35.50;53.00;;;;;;4964625;29;20027;-73
2022/07/25 17:23:43;;;;;;;5.13;4.63;;;35.20;53.00;;;;;;4965497;29;20038;-73
2022/07/25 17:26:09;;;;;;;5.85;4.60;;;35.90;52.40;;;;;;4964923;29;20039;-74
2022/07/25 17:28:38;;;;;;;6.35;4.97;;;36.20;52.00;;;;;;4948119;29;20131;-75
2022/07/25 17:31:04;;;;;;;6.68;4.32;;;36.40;51.60;;;;;;4964852;28;20110;-75
2022/07/25 17:33:29;;;;;;;9.15;4.45;;;36.80;51.50;;;;;;4964650;29;20027;-75
2022/07/25 17:35:57;;;;;;;6.80;4.45;;;37.10;51.20;;;;;;4964776;28;20073;-74
2022/07/25 17:38:23;;;;;;;7.45;4.43;;;37.40;50.90;;;;;;4964755;29;20035;-76
2022/07/25 17:40:49;;;;;;;7.40;4.40;;;37.50;50.80;;;;;;4964828;29;20034;-75
2022/07/25 17:43:14;;;;;;;7.00;4.25;;;37.20;51.20;;;;;;4964180;29;20038;-75
2022/07/25 17:45:43;;;;;;;7.35;4.93;;;36.70;52.00;;;;;;4964794;28;20031;-74
2022/07/25 17:48:09;;;;;;;6.85;4.88;;;36.70;52.30;;;;;;4963938;29;20088;-74
2022/07/25 17:50:35;;;;;;;10.05;4.70;;;36.60;52.50;;;;;;4965127;29;20327;-75